Flight Number: EUR3019 Duration: 7:00
Departure: Baltimore Washington Intl (KBWI) at 07:00 Distance: 3173 Nm
Arrival: Gatwick Airport (EGKK) at 14:00 Equipment: B777

Weather Information
BALTIMORE-WASHINGTON INTERNATIONAL , MD, United States (KBWI) 39-10N 076-41W 59M Feb 19, 2018 - 01:54 AM EST / 2018.02.19 0654 UTC
Wind: Calm:0
Visibility: 10 mile(s):0
Sky conditions: mostly cloudy Temperature: 34.0 F (1.1 C) Dew Point: 33.1 F (0.6 C) Relative Humidity: 96% Pressure (altimeter): 30.49 in. Hg (1032 hPa)
ob: KBWI 190654Z 00000KT 10SM FEW160 BKN250 01/01 A3049 RMK AO2 SLP326 T00110006 cycle: 7
Sunrise: 11:55 Sunset: 22:45 (UTC)

London / Gatwick Airport, United Kingdom (EGKK) 51-09N 000-11W 0M Feb 19, 2018 - 02:20 AM EST / 2018.02.19 0720 UTC
Wind: from the SW (220 degrees) at 3 MPH (3 KT):0
Visibility: 1 mile(s):0
Sky conditions: overcast Weather: light drizzle Temperature: 44 F (7 C) Dew Point: 44 F (7 C) Relative Humidity: 100% Pressure (altimeter): 30.03 in. Hg (1017 hPa)
ob: EGKK 190720Z 22003KT 3000 -DZ BKN004 OVC021 07/07 Q1017 cycle: 7
Sunrise: 07:08 Sunset: 17:20 (UTC)

TAF:2018/02/19 06:20 TAF EGKK 190458Z 1906/2012 20003KT 4000 -DZ BR BKN006 TEMPO 1906/1910 0300 DZ FG BKN001 TEMPO 1910/2006 RADZ BKN003 BECMG 1912/1915 33010KT

Previous Pireps for this route
Date Aircraft Flight time Fuel used Landing rate On time
2013-02-04A34007.09176480-953No
2013-12-03B7479.10171000Yes
2016-06-07B77706.36127079-304No
(pireps marked green are flown by you)

Route map